Time;durP1;ratioP1;P1;durP2;ratioP2;P2;SDS_P1;SDS_P2;PMS_P1;PMS_P2;Temp;Humidity;BMP_temperature;BMP_pressure;BME280_temperature;BME280_humidity;BME280_pressure;Samples;Min_cycle;Max_cycle;Signal;HPM_P1;HPM_P2
2021/05/22 00:01:56;;;;;;;1.92;0.82;;;11.30;99.90;;;;;;5017604;28;20371;-85
2021/05/22 00:04:21;;;;;;;1.48;0.70;;;11.30;99.90;;;;;;5017457;28;20033;-84
2021/05/22 00:06:47;;;;;;;4.28;1.05;;;11.40;99.90;;;;;;5017378;28;20030;-85
2021/05/22 00:09:13;;;;;;;1.65;0.70;;;11.30;99.90;;;;;;5018409;28;20030;-86
2021/05/22 00:11:38;;;;;;;1.88;0.82;;;11.30;99.90;;;;;;5018623;28;20373;-86
2021/05/22 00:14:06;;;;;;;3.22;0.90;;;11.40;99.90;;;;;;5018995;28;20053;-87
2021/05/22 00:16:33;;;;;;;1.42;0.70;;;11.40;99.90;;;;;;5017647;28;20022;-88
2021/05/22 00:18:59;;;;;;;2.70;0.93;;;11.30;99.90;;;;;;5017477;28;20053;-86
2021/05/22 00:21:24;;;;;;;3.53;0.93;;;11.40;99.90;;;;;;5018403;28;20083;-86
2021/05/22 00:23:50;;;;;;;1.88;0.80;;;11.30;99.90;;;;;;5018316;28;20022;-83
2021/05/22 00:26:16;;;;;;;4.70;1.40;;;11.30;99.90;;;;;;5017105;28;20030;-86
2021/05/22 00:28:42;;;;;;;2.13;1.05;;;11.30;99.90;;;;;;5017133;28;20034;-86
2021/05/22 00:31:07;;;;;;;2.53;1.25;;;11.30;99.90;;;;;;5016899;28;20389;-89
2021/05/22 00:33:33;;;;;;;2.40;1.40;;;11.30;99.90;;;;;;5016709;28;20032;-83
2021/05/22 00:35:59;;;;;;;2.08;1.10;;;11.30;99.90;;;;;;5017069;28;20034;-88
2021/05/22 00:38:25;;;;;;;2.13;1.50;;;11.40;99.90;;;;;;5016675;28;20389;-84
2021/05/22 00:40:50;;;;;;;2.92;1.63;;;11.40;99.90;;;;;;5018150;28;20041;-87
2021/05/22 00:43:16;;;;;;;3.60;1.58;;;11.30;99.90;;;;;;5017725;28;20018;-85
2021/05/22 00:45:44;;;;;;;2.75;1.40;;;11.30;99.90;;;;;;5014914;28;20044;-86
2021/05/22 00:48:10;;;;;;;2.25;1.45;;;11.20;99.90;;;;;;5016674;28;20057;-84
2021/05/22 00:50:39;;;;;;;2.13;1.40;;;11.20;99.90;;;;;;5017508;28;20486;-88
2021/05/22 00:53:06;;;;;;;3.20;1.40;;;11.20;99.90;;;;;;5016686;28;20056;-87
2021/05/22 00:55:33;;;;;;;3.60;1.40;;;11.20;99.90;;;;;;5017669;28;20033;-89
2021/05/22 00:58:01;;;;;;;4.50;1.38;;;11.20;99.90;;;;;;5016523;28;20029;-83
2021/05/22 01:00:53;;;;;;;2.03;1.38;;;11.30;99.90;;;;;;5016557;28;20079;-87
2021/05/22 01:03:29;;;;;;;4.32;1.45;;;11.30;99.90;;;;;;5014051;28;20052;-87
2021/05/22 01:06:13;;;;;;;2.80;0.88;;;11.30;99.90;;;;;;5016127;28;20513;-87
2021/05/22 01:08:42;;;;;;;1.83;0.80;;;11.30;99.90;;;;;;5016121;28;20018;-85
2021/05/22 01:11:20;;;;;;;1.38;0.80;;;11.30;99.90;;;;;;5016553;28;20060;-86
2021/05/22 01:13:57;;;;;;;1.40;1.00;;;11.40;99.90;;;;;;5016762;28;20029;-88
2021/05/22 01:16:23;;;;;;;4.28;1.08;;;11.30;99.90;;;;;;5017582;28;20106;-86
2021/05/22 01:18:48;;;;;;;4.57;1.30;;;11.30;99.90;;;;;;5018998;28;20077;-83
2021/05/22 01:21:15;;;;;;;1.92;1.00;;;11.30;99.90;;;;;;5016898;28;20026;-87
2021/05/22 01:24:05;;;;;;;4.07;1.20;;;11.30;99.90;;;;;;5016420;28;20045;-86
2021/05/22 01:26:31;;;;;;;3.95;1.52;;;11.30;99.90;;;;;;5004562;28;20041;-86
2021/05/22 01:28:58;;;;;;;1.75;1.20;;;11.30;99.90;;;;;;5015709;28;20029;-86
2021/05/22 01:31:25;;;;;;;2.15;1.05;;;11.20;99.90;;;;;;5015424;28;20053;-86
2021/05/22 01:33:51;;;;;;;2.97;1.10;;;11.20;99.90;;;;;;5015794;28;20025;-87
2021/05/22 01:36:18;;;;;;;2.35;1.17;;;11.20;99.90;;;;;;5015842;28;20109;-87
2021/05/22 01:38:43;;;;;;;2.67;0.90;;;11.10;99.90;;;;;;5015684;28;20038;-87
2021/05/22 01:41:09;;;;;;;2.55;0.98;;;11.10;99.90;;;;;;5015708;28;20508;-86
2021/05/22 01:43:39;;;;;;;4.53;0.82;;;11.10;99.90;;;;;;5015703;28;20053;-86
2021/05/22 01:46:05;;;;;;;2.67;1.15;;;11.10;99.90;;;;;;5015691;28;20022;-89
2021/05/22 01:48:32;;;;;;;2.55;1.10;;;11.10;99.90;;;;;;5015348;28;20117;-88
2021/05/22 01:51:07;;;;;;;3.72;0.80;;;11.10;99.90;;;;;;5017106;28;20053;-86
2021/05/22 01:53:35;;;;;;;1.33;0.90;;;11.10;99.90;;;;;;5015377;28;20022;-85
2021/05/22 01:56:02;;;;;;;3.97;1.40;;;11.00;99.90;;;;;;5015485;28;20029;-88
2021/05/22 01:58:27;;;;;;;3.15;1.02;;;11.00;99.90;;;;;;5014973;28;20117;-85
2021/05/22 02:00:54;;;;;;;2.72;1.30;;;11.10;99.90;;;;;;5016851;28;20045;-88
2021/05/22 02:03:41;;;;;;;3.53;1.48;;;11.10;99.90;;;;;;5016166;28;20037;-85
2021/05/22 02:06:18;;;;;;;3.75;1.63;;;11.10;99.90;;;;;;5015541;28;20042;-86
2021/05/22 02:08:46;;;;;;;5.43;1.48;;;11.20;99.90;;;;;;5015267;28;20029;-87
2021/05/22 02:11:13;;;;;;;5.32;1.63;;;11.20;99.90;;;;;;5016432;28;20160;-84
2021/05/22 02:13:40;;;;;;;2.30;1.55;;;11.10;99.90;;;;;;5015252;28;20050;-87
2021/05/22 02:16:06;;;;;;;3.22;1.60;;;11.10;99.90;;;;;;5016194;28;20057;-86
2021/05/22 02:18:34;;;;;;;2.60;1.20;;;11.10;99.90;;;;;;5014924;28;20448;-87
2021/05/22 02:21:02;;;;;;;5.13;1.52;;;11.10;99.90;;;;;;5016306;28;20080;-86
2021/05/22 02:23:30;;;;;;;3.70;1.40;;;11.10;99.90;;;;;;5014953;28;20029;-89
2021/05/22 02:25:57;;;;;;;4.35;1.55;;;11.10;99.90;;;;;;5016015;28;20065;-86
2021/05/22 02:28:27;;;;;;;2.72;1.40;;;11.10;99.90;;;;;;5016165;28;20022;-86
2021/05/22 02:30:53;;;;;;;3.15;1.63;;;11.10;99.90;;;;;;5017013;28;20386;-88
2021/05/22 02:33:19;;;;;;;3.42;1.70;;;11.20;99.90;;;;;;5035553;28;20038;-86
2021/05/22 02:35:47;;;;;;;6.07;2.20;;;11.20;99.90;;;;;;5018417;28;20022;-87
2021/05/22 02:38:20;;;;;;;1.98;1.60;;;11.20;99.90;;;;;;5018156;28;20469;-87
2021/05/22 02:40:49;;;;;;;2.10;1.33;;;11.20;99.90;;;;;;5017880;28;20112;-84
2021/05/22 02:43:15;;;;;;;3.20;1.40;;;11.10;99.90;;;;;;5017747;28;20025;-89
2021/05/22 02:45:44;;;;;;;2.75;1.50;;;11.10;99.90;;;;;;5017938;28;20040;-88
2021/05/22 02:48:15;;;;;;;5.60;1.73;;;11.10;99.90;;;;;;5017861;28;20032;-87
2021/05/22 02:50:44;;;;;;;2.58;1.60;;;11.10;99.90;;;;;;5018275;28;20032;-86
2021/05/22 02:53:11;;;;;;;4.32;2.00;;;11.00;99.90;;;;;;5035993;28;20017;-85
2021/05/22 02:55:38;;;;;;;6.57;1.70;;;11.00;99.90;;;;;;5035619;28;20033;-86
2021/05/22 02:58:05;;;;;;;3.22;1.70;;;10.90;99.90;;;;;;5018082;28;20457;-85
2021/05/22 03:00:32;;;;;;;5.07;1.85;;;10.90;99.90;;;;;;5018102;28;20058;-84
2021/05/22 03:02:59;;;;;;;3.95;1.60;;;10.90;99.90;;;;;;5035467;28;20021;-86
2021/05/22 03:05:25;;;;;;;2.10;1.30;;;10.90;99.90;;;;;;5035266;28;20044;-87
2021/05/22 03:07:51;;;;;;;3.13;1.55;;;10.90;99.90;;;;;;5035412;28;20112;-87
2021/05/22 03:10:17;;;;;;;4.82;1.50;;;10.90;99.90;;;;;;5017036;28;20021;-87
2021/05/22 03:12:43;;;;;;;3.33;1.50;;;10.90;99.90;;;;;;5035411;28;20022;-86
2021/05/22 03:15:11;;;;;;;2.60;1.77;;;10.90;99.90;;;;;;5017565;28;20022;-86
2021/05/22 03:17:37;;;;;;;2.35;1.70;;;10.90;99.90;;;;;;5017703;28;20026;-88
2021/05/22 03:20:05;;;;;;;4.82;2.28;;;10.90;99.90;;;;;;5017313;28;20022;-86
2021/05/22 03:22:30;;;;;;;4.18;1.63;;;10.90;99.90;;;;;;5017463;28;20136;-85
2021/05/22 03:24:56;;;;;;;2.50;1.67;;;10.90;99.90;;;;;;5017399;28;20159;-86
2021/05/22 03:27:22;;;;;;;4.03;1.80;;;10.90;99.90;;;;;;5016982;28;20025;-86
2021/05/22 03:29:48;;;;;;;8.27;2.30;;;11.00;99.90;;;;;;5034795;28;20030;-85
2021/05/22 03:32:14;;;;;;;6.38;1.65;;;11.00;99.90;;;;;;5013772;28;20042;-85
2021/05/22 03:34:40;;;;;;;3.55;1.67;;;11.10;99.90;;;;;;5014018;28;20080;-88
2021/05/22 03:37:06;;;;;;;5.35;1.75;;;11.10;99.90;;;;;;5014877;28;20034;-84
2021/05/22 03:39:32;;;;;;;4.40;1.88;;;11.10;99.90;;;;;;5014137;28;20080;-88
2021/05/22 03:41:57;;;;;;;4.68;1.95;;;11.10;99.90;;;;;;5014147;28;20025;-84
2021/05/22 03:44:23;;;;;;;2.97;1.50;;;11.10;99.90;;;;;;5014243;28;20033;-86
2021/05/22 03:46:49;;;;;;;3.95;1.52;;;11.10;99.90;;;;;;5014129;28;20052;-86
2021/05/22 03:49:15;;;;;;;3.97;1.40;;;11.10;99.90;;;;;;5013795;28;20022;-87
2021/05/22 03:51:40;;;;;;;4.65;1.73;;;11.10;99.90;;;;;;5013691;28;20030;-86
2021/05/22 03:54:06;;;;;;;4.68;2.00;;;11.20;99.90;;;;;;5014738;28;20033;-85
2021/05/22 03:56:32;;;;;;;2.30;1.40;;;11.20;99.90;;;;;;5014602;28;20084;-87
2021/05/22 03:58:57;;;;;;;4.65;1.63;;;11.20;99.90;;;;;;5013486;28;20432;-84
2021/05/22 04:01:23;;;;;;;4.75;1.27;;;11.30;99.90;;;;;;5013804;28;20482;-89
2021/05/22 04:03:49;;;;;;;2.85;1.55;;;11.30;99.90;;;;;;5013932;28;20049;-85
2021/05/22 04:06:15;;;;;;;5.72;1.98;;;11.30;99.90;;;;;;5013475;28;20053;-85
2021/05/22 04:08:41;;;;;;;2.67;1.50;;;11.30;99.90;;;;;;5013485;28;20022;-86
2021/05/22 04:11:07;;;;;;;3.30;1.08;;;11.40;99.90;;;;;;5013941;28;20026;-87
2021/05/22 04:13:33;;;;;;;6.60;1.30;;;11.40;99.90;;;;;;5013766;28;20470;-86
2021/05/22 04:15:59;;;;;;;3.58;1.60;;;11.40;99.90;;;;;;5014687;28;20080;-85
2021/05/22 04:18:25;;;;;;;4.78;1.40;;;11.40;99.90;;;;;;5014220;28;20088;-86
2021/05/22 04:20:51;;;;;;;4.18;2.25;;;11.40;99.90;;;;;;5015034;28;20464;-86
2021/05/22 04:23:17;;;;;;;12.43;8.50;;;11.50;99.90;;;;;;5018425;28;20033;-88
2021/05/22 04:25:43;;;;;;;4.97;3.15;;;11.50;99.90;;;;;;5017372;28;20042;-85
2021/05/22 04:28:09;;;;;;;4.95;3.58;;;11.50;99.90;;;;;;5017312;28;20021;-86
2021/05/22 04:30:34;;;;;;;5.55;2.58;;;11.40;99.90;;;;;;5017992;28;20034;-84
2021/05/22 04:33:00;;;;;;;2.38;1.83;;;11.40;99.90;;;;;;5019128;28;20046;-87
2021/05/22 04:35:26;;;;;;;4.65;2.40;;;11.30;99.90;;;;;;5018308;28;20421;-85
2021/05/22 04:37:52;;;;;;;3.05;1.67;;;11.30;99.90;;;;;;5018499;28;20037;-88
2021/05/22 04:40:17;;;;;;;3.63;1.65;;;11.30;99.90;;;;;;5017512;28;20030;-86
2021/05/22 04:42:43;;;;;;;2.55;1.45;;;11.30;99.90;;;;;;5018250;28;20116;-85
2021/05/22 04:45:09;;;;;;;7.35;1.88;;;11.30;99.90;;;;;;5016741;28;20126;-86
2021/05/22 04:47:35;;;;;;;5.07;1.83;;;11.40;99.90;;;;;;5017476;28;20026;-86
2021/05/22 04:50:03;;;;;;;2.63;1.60;;;11.40;99.90;;;;;;5017752;28;20033;-84
2021/05/22 04:52:29;;;;;;;9.52;4.15;;;11.50;99.90;;;;;;5016201;28;20026;-88
2021/05/22 04:54:54;;;;;;;22.08;11.30;;;11.60;99.90;;;;;;5016679;28;20026;-88
2021/05/22 04:57:20;;;;;;;108.15;53.75;;;11.80;99.90;;;;;;5016626;28;20136;-88
2021/05/22 04:59:46;;;;;;;14.93;6.72;;;11.90;99.90;;;;;;5017396;28;20113;-87
2021/05/22 05:02:11;;;;;;;7.32;3.88;;;12.00;99.90;;;;;;5017694;28;20026;-87
2021/05/22 05:04:37;;;;;;;5.90;2.60;;;12.10;99.90;;;;;;5015743;28;20129;-87
2021/05/22 05:07:04;;;;;;;5.18;2.42;;;12.20;99.90;;;;;;5017310;28;20026;-87
2021/05/22 05:09:33;;;;;;;13.40;9.65;;;12.20;99.90;;;;;;5016766;28;20060;-87
2021/05/22 05:12:01;;;;;;;29.95;14.98;;;12.30;99.90;;;;;;5017205;28;20029;-86
2021/05/22 05:14:27;;;;;;;7.30;4.00;;;12.40;99.90;;;;;;5015958;28;20108;-88
2021/05/22 05:16:53;;;;;;;6.88;2.22;;;12.60;99.90;;;;;;5015918;28;20029;-88
2021/05/22 05:19:19;;;;;;;4.00;2.38;;;12.70;99.90;;;;;;5018712;28;20113;-86
2021/05/22 05:21:44;;;;;;;5.32;3.72;;;13.10;99.90;;;;;;5016796;28;20029;-88
2021/05/22 05:24:12;;;;;;;4.53;2.70;;;13.10;99.90;;;;;;5017410;28;20116;-87
2021/05/22 05:26:37;;;;;;;5.93;2.00;;;12.90;99.90;;;;;;5003679;28;20401;-84
2021/05/22 05:29:03;;;;;;;3.55;1.60;;;12.80;99.90;;;;;;4996298;28;20026;-87
2021/05/22 05:31:29;;;;;;;2.22;1.70;;;12.80;99.90;;;;;;4999119;28;20058;-84
2021/05/22 05:33:54;;;;;;;5.97;1.70;;;12.80;99.90;;;;;;4999984;28;20037;-87
2021/05/22 05:36:20;;;;;;;3.40;1.83;;;12.90;99.90;;;;;;4999344;28;20358;-87
2021/05/22 05:38:46;;;;;;;5.60;2.05;;;12.90;99.90;;;;;;4999706;28;20052;-86
2021/05/22 05:41:11;;;;;;;5.85;1.77;;;12.90;99.90;;;;;;5016692;28;20030;-90
2021/05/22 05:43:37;;;;;;;5.65;1.48;;;12.90;99.90;;;;;;5016805;28;20033;-87
2021/05/22 05:46:02;;;;;;;2.65;1.40;;;12.90;99.90;;;;;;4999015;28;20042;-86
2021/05/22 05:48:28;;;;;;;2.80;1.50;;;12.90;99.90;;;;;;4998877;28;20108;-88
2021/05/22 05:50:54;;;;;;;5.18;1.30;;;12.90;99.90;;;;;;4999253;28;20041;-86
2021/05/22 05:53:19;;;;;;;4.25;1.50;;;12.90;99.90;;;;;;5017122;28;20049;-89
2021/05/22 05:55:46;;;;;;;4.47;1.95;;;12.90;99.90;;;;;;4999212;28;20033;-87
2021/05/22 05:58:11;;;;;;;6.35;1.80;;;12.90;99.90;;;;;;4999102;28;20025;-88
2021/05/22 06:00:37;;;;;;;4.35;2.05;;;12.80;99.90;;;;;;4999330;28;20026;-86
2021/05/22 06:03:03;;;;;;;5.07;2.28;;;12.90;99.90;;;;;;5016721;28;20026;-87
2021/05/22 06:05:28;;;;;;;2.72;1.60;;;12.90;99.90;;;;;;4998926;28;20030;-89
2021/05/22 06:07:54;;;;;;;3.92;1.50;;;12.80;99.90;;;;;;4999356;28;20025;-87
2021/05/22 06:10:20;;;;;;;6.30;1.58;;;12.70;99.90;;;;;;5016120;28;20036;-87
2021/05/22 06:12:46;;;;;;;4.18;1.70;;;12.80;99.90;;;;;;4998940;28;20026;-87
2021/05/22 06:17:42;;;;;;;6.68;1.85;;;12.70;99.90;;;;;;5016607;28;20539;-86
2021/05/22 06:20:08;;;;;;;4.32;1.80;;;12.70;99.90;;;;;;5015936;28;20109;-86
2021/05/22 06:22:34;;;;;;;3.47;1.40;;;12.70;99.90;;;;;;4998886;28;20026;-86
2021/05/22 06:25:00;;;;;;;5.95;1.50;;;12.70;99.90;;;;;;4998758;28;20037;-87
2021/05/22 06:27:26;;;;;;;4.35;1.52;;;12.70;99.90;;;;;;4998708;28;20034;-87
2021/05/22 06:29:52;;;;;;;3.83;1.42;;;12.80;99.90;;;;;;5015796;28;20371;-83
2021/05/22 06:32:18;;;;;;;5.72;1.90;;;12.80;99.90;;;;;;4997537;28;20092;-83
2021/05/22 06:34:44;;;;;;;6.15;1.45;;;12.80;99.90;;;;;;4997375;28;20056;-86
2021/05/22 06:37:10;;;;;;;5.50;1.50;;;12.90;99.90;;;;;;4999514;28;20025;-83
2021/05/22 06:39:35;;;;;;;4.60;1.63;;;12.90;99.90;;;;;;5008767;28;20080;-85
2021/05/22 06:42:02;;;;;;;2.38;1.20;;;12.90;99.90;;;;;;5017180;28;20113;-80
2021/05/22 06:44:51;;;;;;;3.10;1.30;;;12.90;99.90;;;;;;5034255;28;20132;-82
2021/05/22 06:47:16;;;;;;;4.57;1.88;;;12.90;99.90;;;;;;5016358;28;20025;-84
2021/05/22 06:49:42;;;;;;;3.60;2.05;;;12.90;99.90;;;;;;5016760;28;20022;-83
2021/05/22 06:52:07;;;;;;;14.45;9.75;;;12.90;99.90;;;;;;5016740;28;20033;-83
2021/05/22 06:54:34;;;;;;;12.57;7.75;;;13.00;99.90;;;;;;5016724;28;20060;-84
2021/05/22 06:57:00;;;;;;;4.85;2.22;;;12.90;99.90;;;;;;5016549;28;20022;-86
2021/05/22 06:59:27;;;;;;;15.55;6.57;;;12.90;99.90;;;;;;5016631;28;20079;-87
2021/05/22 07:01:52;;;;;;;8.10;3.70;;;12.90;99.90;;;;;;5017188;28;20060;-82
2021/05/22 07:04:18;;;;;;;5.13;1.95;;;12.90;99.90;;;;;;5036263;28;20049;-83
2021/05/22 07:06:44;;;;;;;5.82;1.80;;;12.80;99.90;;;;;;5018563;28;20061;-83
2021/05/22 07:09:09;;;;;;;7.07;2.30;;;12.70;99.90;;;;;;5034892;28;20471;-86
2021/05/22 07:11:35;;;;;;;5.00;2.67;;;12.70;99.90;;;;;;5017688;28;20021;-86
2021/05/22 07:14:01;;;;;;;6.57;3.50;;;12.70;99.90;;;;;;5017299;28;20025;-86
2021/05/22 07:16:27;;;;;;;4.47;2.10;;;12.70;99.90;;;;;;5017470;28;20029;-85
2021/05/22 07:18:54;;;;;;;10.55;3.60;;;12.70;99.90;;;;;;5017231;28;20461;-86
2021/05/22 07:21:19;;;;;;;5.35;3.38;;;12.80;99.90;;;;;;5018152;28;20100;-83
2021/05/22 07:23:45;;;;;;;5.88;3.22;;;13.60;99.90;;;;;;5015967;28;20600;-85
2021/05/22 07:26:11;;;;;;;5.10;2.67;;;13.50;99.90;;;;;;5016448;28;20041;-81
2021/05/22 07:28:36;;;;;;;6.85;3.13;;;13.50;99.90;;;;;;5034238;28;20049;-83
2021/05/22 07:31:02;;;;;;;5.13;3.08;;;13.30;99.90;;;;;;5016351;28;20163;-87
2021/05/22 07:33:32;;;;;;;5.18;3.08;;;13.20;99.90;;;;;;5016428;28;20079;-83
2021/05/22 07:35:58;;;;;;;5.53;2.50;;;13.20;99.90;;;;;;5016446;28;20021;-88
2021/05/22 07:38:24;;;;;;;5.82;3.17;;;13.10;99.90;;;;;;5016426;28;20095;-85
2021/05/22 07:40:50;;;;;;;9.60;2.53;;;13.10;99.90;;;;;;5016761;28;20025;-84
2021/05/22 07:43:18;;;;;;;4.53;1.88;;;14.30;99.90;;;;;;5016998;28;20048;-85
2021/05/22 07:45:44;;;;;;;7.28;2.10;;;15.40;99.90;;;;;;5034133;28;20072;-87
2021/05/22 07:48:10;;;;;;;4.70;1.90;;;15.90;99.90;;;;;;5034811;28;20018;-87
2021/05/22 07:50:36;;;;;;;5.13;3.30;;;15.60;99.90;;;;;;5016882;28;20210;-89
2021/05/22 07:53:02;;;;;;;16.08;6.57;;;15.30;99.90;;;;;;5016747;28;20030;-88
2021/05/22 07:55:28;;;;;;;14.80;7.53;;;15.00;99.90;;;;;;5018024;28;20081;-90
2021/05/22 07:57:54;;;;;;;20.92;7.38;;;15.10;99.90;;;;;;5020667;28;20469;-87
2021/05/22 08:00:23;;;;;;;6.57;2.47;;;15.50;99.90;;;;;;5038214;28;20034;-88
2021/05/22 08:02:49;;;;;;;5.97;2.38;;;15.50;99.90;;;;;;5020301;28;20017;-87
2021/05/22 08:05:14;;;;;;;4.15;2.28;;;15.90;99.90;;;;;;5020534;28;20132;-86
2021/05/22 08:07:41;;;;;;;10.48;2.05;;;16.10;99.90;;;;;;5038365;28;20022;-87
2021/05/22 08:10:08;;;;;;;33.50;3.33;;;16.20;99.90;;;;;;5020205;28;20492;-88
2021/05/22 08:12:34;;;;;;;7.15;2.13;;;16.30;99.90;;;;;;5020055;28;20047;-87
2021/05/22 08:15:00;;;;;;;3.67;1.45;;;15.90;99.90;;;;;;5020058;28;20087;-89
2021/05/22 08:17:26;;;;;;;4.03;1.27;;;15.60;99.90;;;;;;5020592;28;20463;-89
2021/05/22 08:19:52;;;;;;;2.80;1.15;;;15.30;99.90;;;;;;5038044;28;20036;-88
2021/05/22 08:22:17;;;;;;;1.98;1.10;;;15.60;99.90;;;;;;5020319;28;20025;-89
2021/05/22 08:24:43;;;;;;;3.70;1.60;;;15.40;99.90;;;;;;5020189;28;20097;-88
2021/05/22 08:27:09;;;;;;;19.98;3.00;;;15.30;99.90;;;;;;5020124;28;20071;-88
2021/05/22 08:29:35;;;;;;;6.63;1.90;;;15.20;99.90;;;;;;5038922;28;20045;-89
2021/05/22 08:32:02;;;;;;;3.58;1.00;;;15.60;99.90;;;;;;5020439;28;20111;-89
2021/05/22 08:34:27;;;;;;;1.75;0.90;;;15.70;99.90;;;;;;5021772;28;20405;-87
2021/05/22 08:36:54;;;;;;;1.85;0.80;;;15.80;99.90;;;;;;5037355;28;20026;-89
2021/05/22 08:39:20;;;;;;;1.95;0.90;;;15.80;99.90;;;;;;5019841;28;20049;-86
2021/05/22 08:41:48;;;;;;;4.18;0.65;;;15.80;99.90;;;;;;5019517;28;20475;-90
2021/05/22 08:44:14;;;;;;;1.52;0.88;;;15.40;99.90;;;;;;5019425;28;20029;-86
2021/05/22 08:46:40;;;;;;;2.13;0.80;;;15.10;99.90;;;;;;5019622;28;20483;-86
2021/05/22 08:49:06;;;;;;;2.83;1.08;;;15.10;99.90;;;;;;5019241;28;20017;-86
2021/05/22 08:51:32;;;;;;;1.80;0.85;;;14.90;99.90;;;;;;5019381;28;20071;-87
2021/05/22 08:53:58;;;;;;;3.25;0.70;;;14.80;99.90;;;;;;5019383;28;20018;-87
2021/05/22 08:56:24;;;;;;;3.42;0.85;;;14.80;99.90;;;;;;5024233;28;20037;-83
2021/05/22 08:58:50;;;;;;;2.85;0.88;;;14.90;99.90;;;;;;5040166;28;20025;-85
2021/05/22 09:01:16;;;;;;;2.58;1.05;;;14.90;99.90;;;;;;5019935;28;20055;-85
2021/05/22 09:03:44;;;;;;;2.72;1.40;;;15.10;99.90;;;;;;5037442;28;20017;-87
2021/05/22 09:06:10;;;;;;;3.65;1.38;;;15.20;99.90;;;;;;5019109;28;20037;-86
2021/05/22 09:08:36;;;;;;;4.60;1.83;;;15.20;99.90;;;;;;5019191;28;20029;-88
2021/05/22 09:11:06;;;;;;;4.00;1.70;;;15.20;99.90;;;;;;5019442;28;20400;-81
2021/05/22 09:13:33;;;;;;;3.63;1.83;;;15.30;99.90;;;;;;5018302;28;20052;-86
2021/05/22 09:16:00;;;;;;;6.15;1.80;;;15.30;99.90;;;;;;5018623;28;20025;-86
2021/05/22 09:18:41;;;;;;;11.88;3.33;;;15.30;99.90;;;;;;5018548;28;20057;-87
2021/05/22 09:21:10;;;;;;;6.18;2.72;;;15.10;99.90;;;;;;5018310;28;20033;-82
2021/05/22 09:23:39;;;;;;;3.58;2.00;;;15.00;99.90;;;;;;5018606;28;20362;-85
2021/05/22 09:26:08;;;;;;;4.13;1.35;;;15.00;99.90;;;;;;5036356;28;20034;-82
2021/05/22 09:28:42;;;;;;;2.42;1.20;;;15.30;99.90;;;;;;5018344;28;20526;-85
2021/05/22 09:31:12;;;;;;;5.93;1.20;;;15.40;99.90;;;;;;5015401;28;20065;-87
2021/05/22 09:33:38;;;;;;;1.20;0.70;;;15.40;99.90;;;;;;5015912;28;20022;-86
2021/05/22 09:36:08;;;;;;;1.73;0.40;;;15.20;99.90;;;;;;5016065;28;20022;-85
2021/05/22 09:38:37;;;;;;;1.63;0.50;;;14.80;99.90;;;;;;5016151;28;20026;-89
2021/05/22 09:41:16;;;;;;;1.05;0.40;;;14.50;99.90;;;;;;5015556;28;20056;-86
2021/05/22 09:44:02;;;;;;;1.60;0.47;;;14.20;99.90;;;;;;5015080;28;20091;-86
2021/05/22 09:46:28;;;;;;;;;;;14.00;99.90;;;;;;5015597;28;20041;-84
2021/05/22 09:49:20;;;;;;;;;;;13.90;99.90;;;;;;5016161;28;19906;-83
2021/05/22 09:52:03;;;;;;;0.82;0.30;;;13.80;99.90;;;;;;5020897;28;19987;-82
2021/05/22 09:54:51;;;;;;;0.77;0.40;;;13.80;99.90;;;;;;5029115;28;20038;-82
2021/05/22 09:57:23;;;;;;;1.42;0.45;;;13.90;99.90;;;;;;5029041;28;20089;-77
2021/05/22 10:00:12;;;;;;;0.50;0.25;;;14.00;99.90;;;;;;5029308;28;20037;-79
2021/05/22 10:02:42;;;;;;;2.28;0.57;;;14.00;99.90;;;;;;5029375;28;20082;-78
2021/05/22 10:05:23;;;;;;;5.07;0.85;;;14.00;99.90;;;;;;5027758;28;20102;-78
2021/05/22 10:07:52;;;;;;;1.40;0.75;;;14.00;99.90;;;;;;5029690;28;20049;-79
2021/05/22 10:10:20;;;;;;;1.65;0.70;;;13.90;99.90;;;;;;5030120;28;20590;-79
2021/05/22 10:12:46;;;;;;;2.65;0.80;;;13.90;99.90;;;;;;5030698;28;20033;-79
2021/05/22 10:15:17;;;;;;;3.00;0.82;;;13.80;99.90;;;;;;5032289;28;20021;-80
2021/05/22 10:17:43;;;;;;;1.60;0.80;;;13.80;99.90;;;;;;5028638;28;20026;-79
2021/05/22 10:20:13;;;;;;;2.90;1.50;;;13.70;99.90;;;;;;5023851;28;20052;-86
2021/05/22 10:22:44;;;;;;;2.28;1.40;;;13.70;99.90;;;;;;5025695;28;20034;-81
2021/05/22 10:25:11;;;;;;;2.33;1.00;;;13.70;99.90;;;;;;5029350;28;20037;-82
2021/05/22 10:27:37;;;;;;;3.90;1.58;;;13.70;99.90;;;;;;5026264;28;20026;-82
2021/05/22 10:30:05;;;;;;;2.63;1.00;;;13.70;99.90;;;;;;5011482;28;20030;-82
2021/05/22 10:32:32;;;;;;;1.77;1.25;;;13.80;99.90;;;;;;5004978;28;20046;-82
2021/05/22 10:35:07;;;;;;;4.25;1.08;;;13.80;99.90;;;;;;5013856;28;20049;-84
2021/05/22 10:37:40;;;;;;;1.38;0.80;;;13.90;99.90;;;;;;5015328;28;20057;-87
2021/05/22 10:40:06;;;;;;;1.45;0.85;;;13.90;99.90;;;;;;4996975;28;20080;-83
2021/05/22 10:42:33;;;;;;;2.47;1.08;;;13.80;99.90;;;;;;5014434;28;20368;-85
2021/05/22 10:45:28;;;;;;;3.08;1.15;;;13.80;99.90;;;;;;4997384;28;20084;-84
2021/05/22 10:47:55;;;;;;;1.77;1.27;;;13.80;99.90;;;;;;5015584;28;20022;-86
2021/05/22 10:50:36;;;;;;;1.15;0.70;;;13.80;99.90;;;;;;4998537;28;20436;-81
2021/05/22 10:53:24;;;;;;;2.88;1.25;;;13.80;99.90;;;;;;4997662;28;20100;-85
2021/05/22 10:56:15;;;;;;;2.40;1.10;;;13.70;99.90;;;;;;4997682;28;20048;-87
2021/05/22 10:59:00;;;;;;;1.25;0.68;;;13.70;99.90;;;;;;4996899;28;20116;-82
2021/05/22 11:01:30;;;;;;;2.30;1.27;;;13.70;99.90;;;;;;4996545;28;20033;-87
2021/05/22 11:04:12;;;;;;;2.60;1.23;;;13.70;99.90;;;;;;4998398;28;20022;-83
2021/05/22 11:07:15;;;;;;;2.28;2.05;;;13.80;99.90;;;;;;4997479;28;20125;-80
2021/05/22 11:09:47;;;;;;;1.77;0.80;;;13.80;99.90;;;;;;4996719;28;20025;-86
2021/05/22 11:12:18;;;;;;;2.25;0.90;;;13.90;99.90;;;;;;4996026;28;20029;-84
2021/05/22 11:14:47;;;;;;;2.25;0.80;;;14.10;99.90;;;;;;4996402;28;20030;-84
2021/05/22 11:17:19;;;;;;;2.10;1.00;;;14.20;99.90;;;;;;4996435;28;20022;-86
2021/05/22 11:20:07;;;;;;;1.38;0.90;;;14.40;99.90;;;;;;4996846;28;20026;-85
2021/05/22 11:22:42;;;;;;;2.83;0.80;;;14.40;99.90;;;;;;4997086;28;20030;-87
2021/05/22 11:25:11;;;;;;;4.47;0.70;;;14.50;99.90;;;;;;5014628;28;20038;-85
2021/05/22 11:27:51;;;;;;;9.90;8.43;;;14.40;99.90;;;;;;5014603;28;20540;-84
2021/05/22 11:30:26;;;;;;;1.00;0.70;;;14.50;99.90;;;;;;4996063;28;20030;-86
2021/05/22 11:32:58;;;;;;;2.53;0.70;;;14.70;99.90;;;;;;5015171;28;20037;-85
2021/05/22 11:35:24;;;;;;;1.30;0.57;;;14.70;99.90;;;;;;5016585;28;20032;-86
2021/05/22 11:37:50;;;;;;;3.67;0.60;;;14.70;99.90;;;;;;5015975;28;20112;-81
2021/05/22 11:40:34;;;;;;;1.13;0.63;;;14.70;99.90;;;;;;5015896;28;20218;-87
2021/05/22 11:43:02;;;;;;;0.65;0.40;;;14.60;99.90;;;;;;5016305;28;20029;-82
2021/05/22 11:45:32;;;;;;;3.22;1.25;;;14.60;99.90;;;;;;5015684;28;20044;-83
2021/05/22 11:47:57;;;;;;;0.90;0.80;;;14.70;99.90;;;;;;5016570;28;20032;-82
2021/05/22 11:50:24;;;;;;;1.35;0.80;;;14.70;99.90;;;;;;5016437;28;20052;-87
2021/05/22 11:52:53;;;;;;;1.80;0.90;;;14.80;99.90;;;;;;5015877;28;20025;-85
2021/05/22 11:55:21;;;;;;;1.77;1.00;;;14.80;99.90;;;;;;5015855;28;20121;-82
2021/05/22 11:58:11;;;;;;;1.95;1.10;;;14.80;99.90;;;;;;5033519;28;20021;-88
2021/05/22 12:00:37;;;;;;;2.33;1.20;;;14.90;99.90;;;;;;5015577;28;20032;-84
2021/05/22 12:03:03;;;;;;;2.28;1.33;;;14.80;99.90;;;;;;5009224;28;20465;-85
2021/05/22 12:05:43;;;;;;;0.98;0.70;;;14.70;99.90;;;;;;5015628;28;20076;-84
2021/05/22 12:08:16;;;;;;;1.60;0.90;;;14.70;99.90;;;;;;5015542;28;20025;-85
2021/05/22 12:10:42;;;;;;;1.30;0.80;;;14.90;99.90;;;;;;5015559;28;20060;-84
2021/05/22 12:13:08;;;;;;;2.03;1.30;;;14.80;99.90;;;;;;5015505;28;20025;-84
2021/05/22 12:15:34;;;;;;;1.55;0.80;;;15.00;99.90;;;;;;5015802;28;20528;-85
2021/05/22 12:18:01;;;;;;;5.38;0.95;;;15.00;99.90;;;;;;5015400;28;20025;-84
2021/05/22 12:20:27;;;;;;;1.90;0.70;;;15.30;99.90;;;;;;5033270;28;20465;-81
2021/05/22 12:22:54;;;;;;;2.72;0.63;;;15.40;99.90;;;;;;5033214;28;20112;-84
2021/05/22 12:25:20;;;;;;;3.05;0.70;;;15.60;99.90;;;;;;5015117;28;20370;-85
2021/05/22 12:27:46;;;;;;;4.35;0.90;;;15.70;99.80;;;;;;5015465;28;20021;-88
2021/05/22 12:30:14;;;;;;;3.53;1.02;;;15.80;99.90;;;;;;5015452;28;20075;-84
2021/05/22 12:32:39;;;;;;;2.45;1.13;;;15.80;98.70;;;;;;5032751;28;20485;-81
2021/05/22 12:35:08;;;;;;;2.50;1.20;;;15.70;99.70;;;;;;5015754;28;20040;-80
2021/05/22 12:37:34;;;;;;;2.38;0.80;;;15.80;98.60;;;;;;5015651;28;20024;-82
2021/05/22 12:40:01;;;;;;;1.73;0.73;;;15.70;98.50;;;;;;5015329;28;20068;-86
2021/05/22 12:42:35;;;;;;;1.10;0.50;;;15.50;98.70;;;;;;5035926;28;20030;-86
2021/05/22 12:45:09;;;;;;;0.88;0.57;;;15.50;99.30;;;;;;5018936;28;20132;-86
2021/05/22 12:47:46;;;;;;;3.17;0.65;;;15.50;99.80;;;;;;5018849;28;20499;-85
2021/05/22 12:50:16;;;;;;;3.00;0.65;;;15.50;99.30;;;;;;5019142;28;20147;-82
2021/05/22 12:52:55;;;;;;;2.40;0.60;;;15.50;99.60;;;;;;5018923;28;20025;-85
2021/05/22 12:55:28;;;;;;;1.23;0.60;;;15.50;99.60;;;;;;5036810;28;20056;-89